sensor_id;sensor_type;location;lat;lon;timestamp;temperature;humidity
22779;DHT22;11556;51.194;3.800;2023-06-10T00:00:56;22.50;99.30
22779;DHT22;11556;51.194;3.800;2023-06-10T00:03:21;22.50;99.80
22779;DHT22;11556;51.194;3.800;2023-06-10T00:05:49;22.50;99.50
22779;DHT22;11556;51.194;3.800;2023-06-10T00:08:15;22.50;99.60
22779;DHT22;11556;51.194;3.800;2023-06-10T00:10:41;22.50;99.90
22779;DHT22;11556;51.194;3.800;2023-06-10T00:13:07;22.40;99.90
22779;DHT22;11556;51.194;3.800;2023-06-10T00:15:37;22.40;99.90
22779;DHT22;11556;51.194;3.800;2023-06-10T00:18:03;22.30;99.90
22779;DHT22;11556;51.194;3.800;2023-06-10T00:20:30;22.30;99.90
22779;DHT22;11556;51.194;3.800;2023-06-10T00:22:57;22.30;99.90
22779;DHT22;11556;51.194;3.800;2023-06-10T00:25:24;22.20;99.90
22779;DHT22;11556;51.194;3.800;2023-06-10T00:27:51;22.20;99.90
22779;DHT22;11556;51.194;3.800;2023-06-10T00:30:17;22.20;99.90
22779;DHT22;11556;51.194;3.800;2023-06-10T00:32:42;22.10;99.90
22779;DHT22;11556;51.194;3.800;2023-06-10T00:35:08;22.10;99.90
22779;DHT22;11556;51.194;3.800;2023-06-10T00:37:34;22.10;99.90
22779;DHT22;11556;51.194;3.800;2023-06-10T00:40:02;22.10;99.90
22779;DHT22;11556;51.194;3.800;2023-06-10T00:42:27;22.00;99.90
22779;DHT22;11556;51.194;3.800;2023-06-10T00:44:54;21.90;99.90
22779;DHT22;11556;51.194;3.800;2023-06-10T00:47:20;21.90;99.90
22779;DHT22;11556;51.194;3.800;2023-06-10T00:49:46;21.90;99.90
22779;DHT22;11556;51.194;3.800;2023-06-10T00:52:14;22.00;99.90
22779;DHT22;11556;51.194;3.800;2023-06-10T00:54:40;22.00;99.90
22779;DHT22;11556;51.194;3.800;2023-06-10T00:57:06;22.00;99.90
22779;DHT22;11556;51.194;3.800;2023-06-10T00:59:32;22.00;99.90
22779;DHT22;11556;51.194;3.800;2023-06-10T01:01:58;22.00;99.90
22779;DHT22;11556;51.194;3.800;2023-06-10T01:04:24;22.00;99.90
22779;DHT22;11556;51.194;3.800;2023-06-10T01:12:21;21.70;99.90
22779;DHT22;11556;51.194;3.800;2023-06-10T01:14:51;21.60;99.90
22779;DHT22;11556;51.194;3.800;2023-06-10T01:17:17;21.60;99.90
22779;DHT22;11556;51.194;3.800;2023-06-10T01:19:44;21.60;99.90
22779;DHT22;11556;51.194;3.800;2023-06-10T01:22:10;21.60;99.90
22779;DHT22;11556;51.194;3.800;2023-06-10T01:24:36;21.60;99.90
22779;DHT22;11556;51.194;3.800;2023-06-10T01:27:06;21.60;99.90
22779;DHT22;11556;51.194;3.800;2023-06-10T01:29:42;21.50;99.90
22779;DHT22;11556;51.194;3.800;2023-06-10T01:32:21;21.50;99.90
22779;DHT22;11556;51.194;3.800;2023-06-10T01:34:49;21.50;99.90
22779;DHT22;11556;51.194;3.800;2023-06-10T01:37:18;21.40;99.90
22779;DHT22;11556;51.194;3.800;2023-06-10T01:39:46;21.40;99.90
22779;DHT22;11556;51.194;3.800;2023-06-10T01:42:12;21.30;99.90
22779;DHT22;11556;51.194;3.800;2023-06-10T01:44:39;21.30;99.90
22779;DHT22;11556;51.194;3.800;2023-06-10T01:47:05;21.20;99.90
22779;DHT22;11556;51.194;3.800;2023-06-10T01:49:30;21.20;99.90
22779;DHT22;11556;51.194;3.800;2023-06-10T01:51:56;21.10;99.90
22779;DHT22;11556;51.194;3.800;2023-06-10T01:54:22;21.10;99.90
22779;DHT22;11556;51.194;3.800;2023-06-10T01:56:47;21.10;99.90
22779;DHT22;11556;51.194;3.800;2023-06-10T01:59:13;21.10;99.90
22779;DHT22;11556;51.194;3.800;2023-06-10T02:01:38;21.00;99.90
22779;DHT22;11556;51.194;3.800;2023-06-10T02:04:04;21.00;99.90
22779;DHT22;11556;51.194;3.800;2023-06-10T02:06:30;21.00;99.90
22779;DHT22;11556;51.194;3.800;2023-06-10T02:08:56;20.90;99.90
22779;DHT22;11556;51.194;3.800;2023-06-10T02:11:21;20.90;99.90
22779;DHT22;11556;51.194;3.800;2023-06-10T02:13:47;21.00;99.90
22779;DHT22;11556;51.194;3.800;2023-06-10T02:16:13;21.00;99.90
22779;DHT22;11556;51.194;3.800;2023-06-10T02:18:41;20.90;99.90
22779;DHT22;11556;51.194;3.800;2023-06-10T02:21:08;20.90;99.90
22779;DHT22;11556;51.194;3.800;2023-06-10T02:23:34;20.80;99.90
22779;DHT22;11556;51.194;3.800;2023-06-10T02:26:00;20.80;99.90
22779;DHT22;11556;51.194;3.800;2023-06-10T02:28:26;20.80;99.90
22779;DHT22;11556;51.194;3.800;2023-06-10T02:30:51;20.70;99.90
22779;DHT22;11556;51.194;3.800;2023-06-10T02:33:17;20.70;99.90
22779;DHT22;11556;51.194;3.800;2023-06-10T02:35:43;20.70;99.90
22779;DHT22;11556;51.194;3.800;2023-06-10T02:38:09;20.70;99.90
22779;DHT22;11556;51.194;3.800;2023-06-10T02:40:35;20.60;99.90
22779;DHT22;11556;51.194;3.800;2023-06-10T02:43:00;20.60;99.90
22779;DHT22;11556;51.194;3.800;2023-06-10T02:45:26;20.60;99.90
22779;DHT22;11556;51.194;3.800;2023-06-10T02:47:52;20.60;99.90
22779;DHT22;11556;51.194;3.800;2023-06-10T02:50:17;20.60;99.90
22779;DHT22;11556;51.194;3.800;2023-06-10T02:52:43;20.60;99.90
22779;DHT22;11556;51.194;3.800;2023-06-10T02:55:09;20.50;99.90
22779;DHT22;11556;51.194;3.800;2023-06-10T02:57:35;20.50;99.90
22779;DHT22;11556;51.194;3.800;2023-06-10T03:00:00;20.40;99.90
22779;DHT22;11556;51.194;3.800;2023-06-10T03:02:29;20.30;99.90
22779;DHT22;11556;51.194;3.800;2023-06-10T03:04:57;20.30;99.90
22779;DHT22;11556;51.194;3.800;2023-06-10T03:07:23;20.30;99.90
22779;DHT22;11556;51.194;3.800;2023-06-10T03:09:49;20.20;99.90
22779;DHT22;11556;51.194;3.800;2023-06-10T03:12:15;20.20;99.90
22779;DHT22;11556;51.194;3.800;2023-06-10T03:14:41;20.20;99.90
22779;DHT22;11556;51.194;3.800;2023-06-10T03:17:07;20.20;99.90
22779;DHT22;11556;51.194;3.800;2023-06-10T03:19:34;20.10;99.90
22779;DHT22;11556;51.194;3.800;2023-06-10T03:22:14;20.10;99.90
22779;DHT22;11556;51.194;3.800;2023-06-10T03:24:40;20.00;99.90
22779;DHT22;11556;51.194;3.800;2023-06-10T03:27:10;20.00;99.90
22779;DHT22;11556;51.194;3.800;2023-06-10T03:29:37;20.00;99.90
22779;DHT22;11556;51.194;3.800;2023-06-10T03:32:02;20.00;99.90
22779;DHT22;11556;51.194;3.800;2023-06-10T03:34:28;20.00;99.90
22779;DHT22;11556;51.194;3.800;2023-06-10T03:36:55;20.00;99.90
22779;DHT22;11556;51.194;3.800;2023-06-10T03:39:22;20.00;99.90
22779;DHT22;11556;51.194;3.800;2023-06-10T03:41:49;20.00;99.90
22779;DHT22;11556;51.194;3.800;2023-06-10T03:44:14;19.90;99.90
22779;DHT22;11556;51.194;3.800;2023-06-10T03:46:40;19.90;99.90
22779;DHT22;11556;51.194;3.800;2023-06-10T03:49:06;19.90;99.90
22779;DHT22;11556;51.194;3.800;2023-06-10T03:51:32;20.00;99.90
22779;DHT22;11556;51.194;3.800;2023-06-10T03:53:57;20.00;99.90
22779;DHT22;11556;51.194;3.800;2023-06-10T03:56:23;20.00;99.90
22779;DHT22;11556;51.194;3.800;2023-06-10T03:58:48;20.00;99.90
22779;DHT22;11556;51.194;3.800;2023-06-10T04:01:14;20.10;99.90
22779;DHT22;11556;51.194;3.800;2023-06-10T04:03:40;20.10;99.90
22779;DHT22;11556;51.194;3.800;2023-06-10T04:06:07;20.10;99.90
22779;DHT22;11556;51.194;3.800;2023-06-10T04:08:33;20.20;99.90
22779;DHT22;11556;51.194;3.800;2023-06-10T04:10:59;20.30;99.90
22779;DHT22;11556;51.194;3.800;2023-06-10T04:13:24;20.30;99.90
22779;DHT22;11556;51.194;3.800;2023-06-10T04:15:50;20.20;99.90
22779;DHT22;11556;51.194;3.800;2023-06-10T04:18:16;20.20;99.90
22779;DHT22;11556;51.194;3.800;2023-06-10T04:20:42;20.40;99.90
22779;DHT22;11556;51.194;3.800;2023-06-10T04:23:08;20.40;99.90
22779;DHT22;11556;51.194;3.800;2023-06-10T04:25:33;20.40;99.90
22779;DHT22;11556;51.194;3.800;2023-06-10T04:27:59;20.50;99.90
22779;DHT22;11556;51.194;3.800;2023-06-10T04:30:25;20.60;99.90
22779;DHT22;11556;51.194;3.800;2023-06-10T04:32:51;20.50;99.90
22779;DHT22;11556;51.194;3.800;2023-06-10T04:35:17;20.60;99.90
22779;DHT22;11556;51.194;3.800;2023-06-10T04:37:43;20.60;99.90
22779;DHT22;11556;51.194;3.800;2023-06-10T04:40:09;20.70;99.90
22779;DHT22;11556;51.194;3.800;2023-06-10T04:42:35;20.80;99.90
22779;DHT22;11556;51.194;3.800;2023-06-10T04:45:01;21.00;99.90
22779;DHT22;11556;51.194;3.800;2023-06-10T04:47:29;21.00;99.90
22779;DHT22;11556;51.194;3.800;2023-06-10T04:49:59;21.30;99.90
22779;DHT22;11556;51.194;3.800;2023-06-10T04:52:25;21.60;99.90
22779;DHT22;11556;51.194;3.800;2023-06-10T04:54:51;22.30;99.90
22779;DHT22;11556;51.194;3.800;2023-06-10T04:57:16;23.20;99.90
22779;DHT22;11556;51.194;3.800;2023-06-10T04:59:42;24.00;99.90
22779;DHT22;11556;51.194;3.800;2023-06-10T05:02:08;24.30;99.90
22779;DHT22;11556;51.194;3.800;2023-06-10T05:04:33;24.70;99.90
22779;DHT22;11556;51.194;3.800;2023-06-10T05:06:59;25.00;99.90
22779;DHT22;11556;51.194;3.800;2023-06-10T05:09:24;25.20;99.90
22779;DHT22;11556;51.194;3.800;2023-06-10T05:11:51;25.60;99.90
22779;DHT22;11556;51.194;3.800;2023-06-10T05:14:19;26.20;99.90
22779;DHT22;11556;51.194;3.800;2023-06-10T05:16:46;26.50;99.90
22779;DHT22;11556;51.194;3.800;2023-06-10T05:19:12;26.70;99.90
22779;DHT22;11556;51.194;3.800;2023-06-10T05:21:37;27.00;99.90
22779;DHT22;11556;51.194;3.800;2023-06-10T05:24:03;27.20;99.90
22779;DHT22;11556;51.194;3.800;2023-06-10T05:26:29;27.80;99.40
22779;DHT22;11556;51.194;3.800;2023-06-10T05:28:57;28.20;97.60
22779;DHT22;11556;51.194;3.800;2023-06-10T05:31:22;28.60;96.20
22779;DHT22;11556;51.194;3.800;2023-06-10T05:33:48;28.80;95.50
22779;DHT22;11556;51.194;3.800;2023-06-10T05:36:13;29.50;93.80
22779;DHT22;11556;51.194;3.800;2023-06-10T05:38:39;30.00;92.60
22779;DHT22;11556;51.194;3.800;2023-06-10T05:41:05;30.10;90.90
22779;DHT22;11556;51.194;3.800;2023-06-10T05:43:30;30.00;90.60
22779;DHT22;11556;51.194;3.800;2023-06-10T05:45:56;30.60;89.20
22779;DHT22;11556;51.194;3.800;2023-06-10T05:48:21;31.00;86.40
22779;DHT22;11556;51.194;3.800;2023-06-10T05:50:47;30.60;86.20
22779;DHT22;11556;51.194;3.800;2023-06-10T05:53:16;30.60;85.60
22779;DHT22;11556;51.194;3.800;2023-06-10T05:55:43;31.10;82.90
22779;DHT22;11556;51.194;3.800;2023-06-10T05:58:09;30.40;81.90
22779;DHT22;11556;51.194;3.800;2023-06-10T06:00:35;29.90;85.50
22779;DHT22;11556;51.194;3.800;2023-06-10T06:03:00;30.50;84.00
22779;DHT22;11556;51.194;3.800;2023-06-10T06:05:26;31.00;82.60
22779;DHT22;11556;51.194;3.800;2023-06-10T06:07:52;30.40;82.10
22779;DHT22;11556;51.194;3.800;2023-06-10T06:10:18;30.40;81.60
22779;DHT22;11556;51.194;3.800;2023-06-10T06:12:44;30.50;82.50
22779;DHT22;11556;51.194;3.800;2023-06-10T06:15:10;31.10;81.30
22779;DHT22;11556;51.194;3.800;2023-06-10T06:17:36;31.50;77.50
22779;DHT22;11556;51.194;3.800;2023-06-10T06:20:03;31.60;77.80
22779;DHT22;11556;51.194;3.800;2023-06-10T06:22:28;31.80;74.80
22779;DHT22;11556;51.194;3.800;2023-06-10T06:24:54;32.00;76.30
22779;DHT22;11556;51.194;3.800;2023-06-10T06:27:20;32.50;72.60
22779;DHT22;11556;51.194;3.800;2023-06-10T06:29:46;33.10;72.40
22779;DHT22;11556;51.194;3.800;2023-06-10T06:32:12;33.30;68.80
22779;DHT22;11556;51.194;3.800;2023-06-10T06:34:38;32.70;70.80
22779;DHT22;11556;51.194;3.800;2023-06-10T06:37:03;33.70;70.00
22779;DHT22;11556;51.194;3.800;2023-06-10T06:39:29;33.00;67.70
22779;DHT22;11556;51.194;3.800;2023-06-10T06:41:55;32.10;69.90
22779;DHT22;11556;51.194;3.800;2023-06-10T06:44:21;33.10;68.90
22779;DHT22;11556;51.194;3.800;2023-06-10T06:46:46;33.30;67.20
22779;DHT22;11556;51.194;3.800;2023-06-10T06:49:12;34.00;64.50
22779;DHT22;11556;51.194;3.800;2023-06-10T06:51:38;33.90;65.10
22779;DHT22;11556;51.194;3.800;2023-06-10T06:54:03;33.80;63.60
22779;DHT22;11556;51.194;3.800;2023-06-10T06:56:31;33.20;64.80
22779;DHT22;11556;51.194;3.800;2023-06-10T06:58:56;33.40;64.10
22779;DHT22;11556;51.194;3.800;2023-06-10T07:01:22;33.30;64.90
22779;DHT22;11556;51.194;3.800;2023-06-10T07:03:48;33.60;64.20
22779;DHT22;11556;51.194;3.800;2023-06-10T07:06:14;34.20;61.20
22779;DHT22;11556;51.194;3.800;2023-06-10T07:08:39;33.90;61.10
22779;DHT22;11556;51.194;3.800;2023-06-10T07:11:05;33.30;62.10
22779;DHT22;11556;51.194;3.800;2023-06-10T07:13:31;34.00;63.00
22779;DHT22;11556;51.194;3.800;2023-06-10T07:15:56;34.30;60.00
22779;DHT22;11556;51.194;3.800;2023-06-10T07:18:22;34.30;60.60
22779;DHT22;11556;51.194;3.800;2023-06-10T07:20:47;34.40;59.50
22779;DHT22;11556;51.194;3.800;2023-06-10T07:23:13;34.10;59.30
22779;DHT22;11556;51.194;3.800;2023-06-10T07:25:40;33.40;60.10
22779;DHT22;11556;51.194;3.800;2023-06-10T07:28:06;33.60;59.60
22779;DHT22;11556;51.194;3.800;2023-06-10T07:30:31;33.70;61.30
22779;DHT22;11556;51.194;3.800;2023-06-10T07:32:57;34.10;58.30
22779;DHT22;11556;51.194;3.800;2023-06-10T07:35:23;33.80;59.40
22779;DHT22;11556;51.194;3.800;2023-06-10T07:37:49;32.90;60.60
22779;DHT22;11556;51.194;3.800;2023-06-10T07:40:14;33.00;61.00
22779;DHT22;11556;51.194;3.800;2023-06-10T07:42:40;32.50;62.40
22779;DHT22;11556;51.194;3.800;2023-06-10T07:45:06;31.70;63.60
22779;DHT22;11556;51.194;3.800;2023-06-10T07:47:33;31.10;65.60
22779;DHT22;11556;51.194;3.800;2023-06-10T07:49:59;31.10;67.20
22779;DHT22;11556;51.194;3.800;2023-06-10T07:52:25;31.10;66.40
22779;DHT22;11556;51.194;3.800;2023-06-10T07:54:51;31.10;66.80
22779;DHT22;11556;51.194;3.800;2023-06-10T07:57:17;31.10;65.70
22779;DHT22;11556;51.194;3.800;2023-06-10T07:59:43;30.50;67.20
22779;DHT22;11556;51.194;3.800;2023-06-10T08:02:09;30.50;69.00
22779;DHT22;11556;51.194;3.800;2023-06-10T08:04:35;31.30;67.20
22779;DHT22;11556;51.194;3.800;2023-06-10T08:07:01;32.40;63.90
22779;DHT22;11556;51.194;3.800;2023-06-10T08:09:28;32.90;61.20
22779;DHT22;11556;51.194;3.800;2023-06-10T08:11:53;33.50;61.20
22779;DHT22;11556;51.194;3.800;2023-06-10T08:14:19;34.50;57.00
22779;DHT22;11556;51.194;3.800;2023-06-10T08:16:45;34.20;57.20
22779;DHT22;11556;51.194;3.800;2023-06-10T08:19:11;34.30;56.40
22779;DHT22;11556;51.194;3.800;2023-06-10T08:21:36;35.10;55.40
22779;DHT22;11556;51.194;3.800;2023-06-10T08:24:05;36.40;54.60
22779;DHT22;11556;51.194;3.800;2023-06-10T08:26:31;35.90;52.80
22779;DHT22;11556;51.194;3.800;2023-06-10T08:28:57;36.60;52.60
22779;DHT22;11556;51.194;3.800;2023-06-10T08:31:22;37.00;52.40
22779;DHT22;11556;51.194;3.800;2023-06-10T08:33:48;37.40;50.90
22779;DHT22;11556;51.194;3.800;2023-06-10T08:36:13;38.50;49.50
22779;DHT22;11556;51.194;3.800;2023-06-10T08:38:39;38.70;47.00
22779;DHT22;11556;51.194;3.800;2023-06-10T08:41:06;37.20;47.50
22779;DHT22;11556;51.194;3.800;2023-06-10T08:43:37;37.00;49.20
22779;DHT22;11556;51.194;3.800;2023-06-10T08:46:08;38.00;48.90
22779;DHT22;11556;51.194;3.800;2023-06-10T08:48:35;38.60;47.40
22779;DHT22;11556;51.194;3.800;2023-06-10T08:51:04;38.60;46.30
22779;DHT22;11556;51.194;3.800;2023-06-10T08:53:32;37.90;45.80
22779;DHT22;11556;51.194;3.800;2023-06-10T08:56:00;37.70;46.90
22779;DHT22;11556;51.194;3.800;2023-06-10T08:58:28;37.10;46.70
22779;DHT22;11556;51.194;3.800;2023-06-10T09:00:54;36.60;47.30
22779;DHT22;11556;51.194;3.800;2023-06-10T09:03:21;36.90;45.00
22779;DHT22;11556;51.194;3.800;2023-06-10T09:05:48;37.40;46.00
22779;DHT22;11556;51.194;3.800;2023-06-10T09:08:15;37.30;45.70
22779;DHT22;11556;51.194;3.800;2023-06-10T09:10:41;37.20;46.60
22779;DHT22;11556;51.194;3.800;2023-06-10T09:13:06;36.60;46.40
22779;DHT22;11556;51.194;3.800;2023-06-10T09:15:32;36.10;46.50
22779;DHT22;11556;51.194;3.800;2023-06-10T09:17:59;36.20;47.10
22779;DHT22;11556;51.194;3.800;2023-06-10T09:20:25;36.30;47.00
22779;DHT22;11556;51.194;3.800;2023-06-10T09:22:51;36.30;46.10
22779;DHT22;11556;51.194;3.800;2023-06-10T09:25:16;35.70;48.20
22779;DHT22;11556;51.194;3.800;2023-06-10T09:27:50;36.30;47.00
22779;DHT22;11556;51.194;3.800;2023-06-10T09:30:28;36.70;46.50
22779;DHT22;11556;51.194;3.800;2023-06-10T09:33:00;35.70;46.70
22779;DHT22;11556;51.194;3.800;2023-06-10T09:35:27;35.20;47.60
22779;DHT22;11556;51.194;3.800;2023-06-10T09:37:53;35.30;47.40
22779;DHT22;11556;51.194;3.800;2023-06-10T09:40:19;35.80;46.60
22779;DHT22;11556;51.194;3.800;2023-06-10T09:42:45;35.80;47.00
22779;DHT22;11556;51.194;3.800;2023-06-10T09:45:11;35.20;48.30
22779;DHT22;11556;51.194;3.800;2023-06-10T09:47:36;35.60;48.30
22779;DHT22;11556;51.194;3.800;2023-06-10T09:50:02;35.20;47.10
22779;DHT22;11556;51.194;3.800;2023-06-10T09:52:29;34.60;47.60
22779;DHT22;11556;51.194;3.800;2023-06-10T09:55:00;34.90;48.30
22779;DHT22;11556;51.194;3.800;2023-06-10T09:57:26;35.40;47.20
22779;DHT22;11556;51.194;3.800;2023-06-10T09:59:55;36.00;46.30
22779;DHT22;11556;51.194;3.800;2023-06-10T10:02:21;35.60;46.90
22779;DHT22;11556;51.194;3.800;2023-06-10T10:04:47;35.90;45.20
22779;DHT22;11556;51.194;3.800;2023-06-10T10:07:13;35.40;46.90
22779;DHT22;11556;51.194;3.800;2023-06-10T10:09:40;36.00;46.70
22779;DHT22;11556;51.194;3.800;2023-06-10T10:12:11;36.00;45.30
22779;DHT22;11556;51.194;3.800;2023-06-10T10:14:38;36.80;45.30
22779;DHT22;11556;51.194;3.800;2023-06-10T10:17:11;36.20;44.90
22779;DHT22;11556;51.194;3.800;2023-06-10T10:19:47;36.20;46.00
22779;DHT22;11556;51.194;3.800;2023-06-10T10:22:26;35.50;44.20
22779;DHT22;11556;51.194;3.800;2023-06-10T10:24:56;35.50;44.30
22779;DHT22;11556;51.194;3.800;2023-06-10T10:30:07;34.30;45.50
22779;DHT22;11556;51.194;3.800;2023-06-10T10:32:40;33.90;46.90
22779;DHT22;11556;51.194;3.800;2023-06-10T10:35:14;34.70;45.50
22779;DHT22;11556;51.194;3.800;2023-06-10T10:37:41;35.30;44.00
22779;DHT22;11556;51.194;3.800;2023-06-10T10:40:08;35.00;43.70
22779;DHT22;11556;51.194;3.800;2023-06-10T10:42:35;34.00;45.60
22779;DHT22;11556;51.194;3.800;2023-06-10T10:45:02;33.60;47.50
22779;DHT22;11556;51.194;3.800;2023-06-10T10:47:28;33.70;46.10
22779;DHT22;11556;51.194;3.800;2023-06-10T10:49:56;34.60;45.60
22779;DHT22;11556;51.194;3.800;2023-06-10T10:52:27;34.80;45.60
22779;DHT22;11556;51.194;3.800;2023-06-10T10:55:12;35.10;44.50
22779;DHT22;11556;51.194;3.800;2023-06-10T10:57:39;34.40;46.10
22779;DHT22;11556;51.194;3.800;2023-06-10T11:00:05;34.10;45.20
22779;DHT22;11556;51.194;3.800;2023-06-10T11:02:43;34.50;45.90
22779;DHT22;11556;51.194;3.800;2023-06-10T11:05:10;34.20;45.00
22779;DHT22;11556;51.194;3.800;2023-06-10T11:07:37;34.50;45.00
22779;DHT22;11556;51.194;3.800;2023-06-10T11:10:12;35.00;45.00
22779;DHT22;11556;51.194;3.800;2023-06-10T11:12:41;34.70;43.40
22779;DHT22;11556;51.194;3.800;2023-06-10T11:15:08;34.20;45.30
22779;DHT22;11556;51.194;3.800;2023-06-10T11:17:33;34.80;46.00
22779;DHT22;11556;51.194;3.800;2023-06-10T11:19:59;35.60;43.60
22779;DHT22;11556;51.194;3.800;2023-06-10T11:22:25;35.40;43.00
22779;DHT22;11556;51.194;3.800;2023-06-10T11:24:51;35.70;42.30
22779;DHT22;11556;51.194;3.800;2023-06-10T11:27:23;34.70;43.20
22779;DHT22;11556;51.194;3.800;2023-06-10T11:32:30;35.00;42.70
22779;DHT22;11556;51.194;3.800;2023-06-10T11:34:57;35.10;42.60
22779;DHT22;11556;51.194;3.800;2023-06-10T11:37:23;35.50;43.10
22779;DHT22;11556;51.194;3.800;2023-06-10T11:39:55;36.20;41.20
22779;DHT22;11556;51.194;3.800;2023-06-10T11:42:22;36.50;40.90
22779;DHT22;11556;51.194;3.800;2023-06-10T11:44:51;35.60;41.10
22779;DHT22;11556;51.194;3.800;2023-06-10T11:47:18;34.80;42.00
22779;DHT22;11556;51.194;3.800;2023-06-10T11:49:44;35.00;41.80
22779;DHT22;11556;51.194;3.800;2023-06-10T11:52:10;35.40;41.00
22779;DHT22;11556;51.194;3.800;2023-06-10T11:54:37;35.10;40.20
22779;DHT22;11556;51.194;3.800;2023-06-10T11:57:02;33.90;41.70
22779;DHT22;11556;51.194;3.800;2023-06-10T11:59:33;33.40;43.20
22779;DHT22;11556;51.194;3.800;2023-06-10T12:01:59;34.30;41.90
22779;DHT22;11556;51.194;3.800;2023-06-10T12:04:25;34.30;41.70
22779;DHT22;11556;51.194;3.800;2023-06-10T12:06:52;34.10;42.40
22779;DHT22;11556;51.194;3.800;2023-06-10T12:09:29;34.00;43.10
22779;DHT22;11556;51.194;3.800;2023-06-10T12:12:05;34.40;41.70
22779;DHT22;11556;51.194;3.800;2023-06-10T12:14:52;34.50;41.20
22779;DHT22;11556;51.194;3.800;2023-06-10T12:19:49;34.80;41.40
22779;DHT22;11556;51.194;3.800;2023-06-10T12:22:14;34.70;41.50
22779;DHT22;11556;51.194;3.800;2023-06-10T12:25:04;35.00;41.70
22779;DHT22;11556;51.194;3.800;2023-06-10T12:27:32;34.10;42.50
22779;DHT22;11556;51.194;3.800;2023-06-10T12:30:00;34.10;43.00
22779;DHT22;11556;51.194;3.800;2023-06-10T12:32:43;34.10;42.30
22779;DHT22;11556;51.194;3.800;2023-06-10T12:35:10;34.40;41.90
22779;DHT22;11556;51.194;3.800;2023-06-10T12:37:38;34.10;42.30
22779;DHT22;11556;51.194;3.800;2023-06-10T12:40:05;34.00;42.80
22779;DHT22;11556;51.194;3.800;2023-06-10T12:42:35;33.80;42.80
22779;DHT22;11556;51.194;3.800;2023-06-10T12:45:03;33.70;43.10
22779;DHT22;11556;51.194;3.800;2023-06-10T12:47:33;33.50;43.50
22779;DHT22;11556;51.194;3.800;2023-06-10T12:50:02;34.20;43.10
22779;DHT22;11556;51.194;3.800;2023-06-10T12:52:28;35.10;40.80
22779;DHT22;11556;51.194;3.800;2023-06-10T12:54:54;35.30;40.80
22779;DHT22;11556;51.194;3.800;2023-06-10T12:57:21;35.00;40.20
22779;DHT22;11556;51.194;3.800;2023-06-10T12:59:47;34.40;41.30
22779;DHT22;11556;51.194;3.800;2023-06-10T13:02:18;34.20;42.10
22779;DHT22;11556;51.194;3.800;2023-06-10T13:04:46;34.70;41.10
22779;DHT22;11556;51.194;3.800;2023-06-10T13:07:12;34.90;40.90
22779;DHT22;11556;51.194;3.800;2023-06-10T13:09:40;35.90;41.00
22779;DHT22;11556;51.194;3.800;2023-06-10T13:12:06;35.60;40.00
22779;DHT22;11556;51.194;3.800;2023-06-10T13:14:31;35.40;40.10
22779;DHT22;11556;51.194;3.800;2023-06-10T13:16:57;34.90;40.70
22779;DHT22;11556;51.194;3.800;2023-06-10T13:19:23;34.60;41.80
22779;DHT22;11556;51.194;3.800;2023-06-10T13:21:48;34.20;41.30
22779;DHT22;11556;51.194;3.800;2023-06-10T13:24:14;34.70;41.80
22779;DHT22;11556;51.194;3.800;2023-06-10T13:26:40;35.00;40.80
22779;DHT22;11556;51.194;3.800;2023-06-10T13:29:05;35.20;40.50
22779;DHT22;11556;51.194;3.800;2023-06-10T13:31:31;35.30;41.30
22779;DHT22;11556;51.194;3.800;2023-06-10T13:33:57;35.20;41.20
22779;DHT22;11556;51.194;3.800;2023-06-10T13:36:23;34.10;41.90
22779;DHT22;11556;51.194;3.800;2023-06-10T13:38:49;33.80;41.40
22779;DHT22;11556;51.194;3.800;2023-06-10T13:41:15;33.40;42.30
22779;DHT22;11556;51.194;3.800;2023-06-10T13:43:41;33.60;42.80
22779;DHT22;11556;51.194;3.800;2023-06-10T13:46:06;33.50;42.50
22779;DHT22;11556;51.194;3.800;2023-06-10T13:48:32;34.10;41.70
22779;DHT22;11556;51.194;3.800;2023-06-10T13:50:58;34.60;41.60
22779;DHT22;11556;51.194;3.800;2023-06-10T13:53:25;34.80;40.00
22779;DHT22;11556;51.194;3.800;2023-06-10T13:55:51;34.30;40.50
22779;DHT22;11556;51.194;3.800;2023-06-10T13:58:16;34.10;41.70
22779;DHT22;11556;51.194;3.800;2023-06-10T14:00:42;33.40;42.80
22779;DHT22;11556;51.194;3.800;2023-06-10T14:03:08;33.40;42.20
22779;DHT22;11556;51.194;3.800;2023-06-10T14:05:33;33.70;43.20
22779;DHT22;11556;51.194;3.800;2023-06-10T14:08:00;33.30;42.20
22779;DHT22;11556;51.194;3.800;2023-06-10T14:10:25;33.00;42.40
22779;DHT22;11556;51.194;3.800;2023-06-10T14:12:51;32.40;43.50
22779;DHT22;11556;51.194;3.800;2023-06-10T14:15:17;32.60;43.20
22779;DHT22;11556;51.194;3.800;2023-06-10T14:17:42;32.70;44.30
22779;DHT22;11556;51.194;3.800;2023-06-10T14:20:08;33.20;45.00
22779;DHT22;11556;51.194;3.800;2023-06-10T14:22:34;33.60;42.70
22779;DHT22;11556;51.194;3.800;2023-06-10T14:25:00;33.70;42.10
22779;DHT22;11556;51.194;3.800;2023-06-10T14:27:25;34.00;41.10
22779;DHT22;11556;51.194;3.800;2023-06-10T14:29:51;33.90;41.30
22779;DHT22;11556;51.194;3.800;2023-06-10T14:32:17;33.60;42.40
22779;DHT22;11556;51.194;3.800;2023-06-10T14:34:42;33.60;42.60
22779;DHT22;11556;51.194;3.800;2023-06-10T14:37:11;33.70;42.20
22779;DHT22;11556;51.194;3.800;2023-06-10T14:39:36;33.90;42.60
22779;DHT22;11556;51.194;3.800;2023-06-10T14:42:02;33.60;41.80
22779;DHT22;11556;51.194;3.800;2023-06-10T14:44:28;33.10;41.60
22779;DHT22;11556;51.194;3.800;2023-06-10T14:46:53;33.10;43.00
22779;DHT22;11556;51.194;3.800;2023-06-10T14:49:19;33.30;42.20
22779;DHT22;11556;51.194;3.800;2023-06-10T14:51:44;33.60;42.70
22779;DHT22;11556;51.194;3.800;2023-06-10T14:54:10;33.40;40.90
22779;DHT22;11556;51.194;3.800;2023-06-10T14:56:36;33.20;42.90
22779;DHT22;11556;51.194;3.800;2023-06-10T14:59:02;33.00;41.80
22779;DHT22;11556;51.194;3.800;2023-06-10T15:01:27;33.00;42.70
22779;DHT22;11556;51.194;3.800;2023-06-10T15:03:53;33.30;42.10
22779;DHT22;11556;51.194;3.800;2023-06-10T15:06:18;33.40;43.00
22779;DHT22;11556;51.194;3.800;2023-06-10T15:08:48;33.40;41.50
22779;DHT22;11556;51.194;3.800;2023-06-10T15:11:16;33.40;40.70
22779;DHT22;11556;51.194;3.800;2023-06-10T15:13:42;33.20;40.90
22779;DHT22;11556;51.194;3.800;2023-06-10T15:16:07;33.20;40.90
22779;DHT22;11556;51.194;3.800;2023-06-10T15:18:33;33.20;41.50
22779;DHT22;11556;51.194;3.800;2023-06-10T15:20:59;33.00;40.60
22779;DHT22;11556;51.194;3.800;2023-06-10T15:23:24;32.90;42.50
22779;DHT22;11556;51.194;3.800;2023-06-10T15:25:50;32.90;42.40
22779;DHT22;11556;51.194;3.800;2023-06-10T15:28:16;32.80;41.90
22779;DHT22;11556;51.194;3.800;2023-06-10T15:30:42;32.60;42.10
22779;DHT22;11556;51.194;3.800;2023-06-10T15:33:07;32.80;42.10
22779;DHT22;11556;51.194;3.800;2023-06-10T15:35:33;32.90;41.30
22779;DHT22;11556;51.194;3.800;2023-06-10T15:37:59;33.00;41.00
22779;DHT22;11556;51.194;3.800;2023-06-10T15:40:25;32.70;41.60